Exira, Iowa
Current Conditions -  °F | °C
As of 12:55 PM on Monday 20 Oct 2014 (Local Time) from KADU Reporting Station
Clear Clear  
Wind Chill: 68°   Ceiling: Unl
Heat Index: 68°   Visibility: 10mi
Dew Point: 34°   Wind: 7mph
Humidity: 28%   Direction: 350°N
Pressure: 30.07"   Gusts: NA
Location:  41.59°N, 94.88°W
Report Text: KADU 201755Z AUTO 35006KT 10SM CLR 20/01 A3007 RMK AO2
Loading
Personal Weather Stations






























Interactive Weather Map
Tropical Storm Tracking
New forecast layout! Learn more

10-Day Weather Forecast

Advertisements
Track Severe Weather on mobile